createdAt,value
2018-06-03T00:00:56.402Z,20.20
2018-06-03T00:03:23.178Z,20.08
2018-06-03T00:05:50.529Z,20.03
2018-06-03T00:08:17.890Z,19.99
2018-06-03T00:10:45.297Z,19.98
2018-06-03T00:13:11.914Z,19.94
2018-06-03T00:15:38.728Z,19.96
2018-06-03T00:18:06.151Z,19.98
2018-06-03T00:20:51.161Z,20.00
2018-06-03T00:23:17.740Z,20.02
2018-06-03T00:25:44.375Z,19.96
2018-06-03T00:28:11.050Z,19.95
2018-06-03T00:30:37.667Z,19.97
2018-06-03T00:33:04.480Z,19.97
2018-06-03T00:35:31.078Z,19.99
2018-06-03T00:37:57.763Z,20.02
2018-06-03T00:40:24.387Z,20.08
2018-06-03T00:42:51.059Z,20.08
2018-06-03T00:45:17.681Z,20.08
2018-06-03T00:47:44.285Z,20.09
2018-06-03T00:50:11.654Z,20.10
2018-06-03T00:52:38.367Z,20.11
2018-06-03T00:55:04.964Z,20.08
2018-06-03T00:57:31.632Z,20.06
2018-06-03T00:59:58.337Z,20.07
2018-06-03T01:02:24.966Z,20.11
2018-06-03T01:04:51.710Z,20.06
2018-06-03T01:07:18.468Z,20.10
2018-06-03T01:09:45.069Z,20.19
2018-06-03T01:12:11.722Z,20.11
2018-06-03T01:14:38.345Z,20.10
2018-06-03T01:17:04.966Z,20.12
2018-06-03T01:19:32.313Z,20.10
2018-06-03T01:21:59.673Z,20.04
2018-06-03T01:24:27.106Z,20.05
2018-06-03T01:26:53.748Z,20.03
2018-06-03T01:29:20.547Z,20.02
2018-06-03T01:31:47.189Z,20.03
2018-06-03T01:34:13.820Z,20.05
2018-06-03T01:36:40.609Z,20.08
2018-06-03T01:39:07.238Z,20.10
2018-06-03T01:41:33.872Z,20.05
2018-06-03T01:44:00.498Z,20.00
2018-06-03T01:46:27.125Z,20.01
2018-06-03T01:48:53.871Z,20.00
2018-06-03T01:51:20.500Z,20.03
2018-06-03T01:53:47.116Z,19.98
2018-06-03T01:56:14.455Z,19.89
2018-06-03T01:58:41.244Z,19.83
2018-06-03T02:01:07.850Z,19.85
2018-06-03T02:03:35.248Z,19.83
2018-06-03T02:06:01.843Z,20.00
2018-06-03T02:08:29.316Z,19.89
2018-06-03T02:10:55.916Z,19.88
2018-06-03T02:13:23.061Z,19.88
2018-06-03T02:15:49.648Z,20.13
2018-06-03T02:18:16.250Z,19.98
2018-06-03T02:20:43.609Z,19.97
2018-06-03T02:23:10.975Z,19.98
2018-06-03T02:25:37.628Z,19.95
2018-06-03T02:28:04.230Z,19.93
2018-06-03T02:30:31.603Z,20.00
2018-06-03T02:32:58.986Z,20.04
2018-06-03T02:35:25.649Z,20.06
2018-06-03T02:37:52.288Z,20.07
2018-06-03T02:40:18.914Z,20.07
2018-06-03T02:42:45.709Z,20.06
2018-06-03T02:45:13.167Z,20.04
2018-06-03T02:47:40.672Z,20.00
2018-06-03T02:50:07.322Z,20.15
2018-06-03T02:52:33.994Z,20.29
2018-06-03T02:55:01.393Z,20.20
2018-06-03T02:57:28.021Z,20.14
2018-06-03T02:59:54.679Z,20.05
2018-06-03T03:02:21.324Z,20.01
2018-06-03T03:04:48.000Z,19.98
2018-06-03T03:07:16.205Z,19.95
2018-06-03T03:09:42.875Z,19.96
2018-06-03T03:12:09.484Z,20.00
2018-06-03T03:14:36.340Z,20.02
2018-06-03T03:17:02.960Z,20.01
2018-06-03T03:19:30.322Z,19.98
2018-06-03T03:21:57.051Z,20.01
2018-06-03T03:24:24.524Z,20.13
2018-06-03T03:26:51.187Z,20.18
2018-06-03T03:29:17.808Z,20.14
2018-06-03T03:31:44.459Z,20.05
2018-06-03T03:34:11.096Z,19.96
2018-06-03T03:36:37.930Z,19.93
2018-06-03T03:39:04.544Z,19.91
2018-06-03T03:41:31.265Z,19.85
2018-06-03T03:43:57.998Z,19.87
2018-06-03T03:46:24.645Z,19.99
2018-06-03T03:48:51.460Z,19.93
2018-06-03T03:51:18.131Z,19.91
2018-06-03T03:53:44.776Z,19.89
2018-06-03T03:56:12.160Z,19.84
2018-06-03T03:58:39.060Z,19.89
2018-06-03T04:01:05.735Z,20.02
2018-06-03T04:03:32.380Z,20.10
2018-06-03T04:05:59.143Z,20.07
2018-06-03T04:08:26.733Z,20.01
2018-06-03T04:10:53.382Z,19.97
2018-06-03T04:13:20.881Z,19.98
2018-06-03T04:15:47.549Z,20.02
2018-06-03T04:18:14.177Z,20.07
2018-06-03T04:20:40.853Z,20.05
2018-06-03T04:23:07.572Z,20.00
2018-06-03T04:25:34.221Z,20.05
2018-06-03T04:28:33.956Z,19.73
2018-06-03T04:31:02.583Z,19.76
2018-06-03T04:33:30.991Z,19.80
2018-06-03T04:35:59.405Z,19.79
2018-06-03T04:38:28.009Z,19.86
2018-06-03T04:40:56.393Z,19.90
2018-06-03T04:43:24.940Z,19.96
2018-06-03T04:45:53.610Z,20.03
2018-06-03T04:48:22.096Z,20.09
2018-06-03T04:50:50.886Z,20.16
2018-06-03T04:53:19.787Z,20.24
2018-06-03T04:55:48.305Z,20.34
2018-06-03T04:58:16.728Z,20.37
2018-06-03T05:00:45.124Z,20.38
2018-06-03T05:03:13.725Z,20.41
2018-06-03T05:05:42.294Z,20.53
2018-06-03T05:08:10.660Z,20.45
2018-06-03T05:10:39.171Z,20.43
2018-06-03T05:13:07.699Z,20.46
2018-06-03T05:15:36.407Z,20.51
2018-06-03T05:18:05.213Z,20.56
2018-06-03T05:20:33.771Z,20.58
2018-06-03T05:23:02.268Z,20.60
2018-06-03T05:25:30.956Z,20.65
2018-06-03T05:27:59.353Z,20.69
2018-06-03T05:30:27.894Z,20.74
2018-06-03T05:32:56.565Z,20.82
2018-06-03T05:35:25.216Z,20.82
2018-06-03T05:37:53.603Z,20.83
2018-06-03T05:40:22.241Z,20.84
2018-06-03T05:42:51.037Z,20.81
2018-06-03T05:45:19.617Z,20.88
2018-06-03T05:47:48.124Z,20.91
2018-06-03T05:50:16.631Z,20.92
2018-06-03T05:52:45.577Z,20.95
2018-06-03T05:55:13.956Z,20.95
2018-06-03T05:57:42.373Z,20.98
2018-06-03T06:00:10.777Z,20.99
2018-06-03T06:02:39.344Z,20.92
2018-06-03T06:05:08.268Z,20.87
2018-06-03T06:07:36.913Z,20.80
2018-06-03T06:10:05.454Z,20.80
2018-06-03T06:12:33.839Z,20.82
2018-06-03T06:15:02.243Z,20.85
2018-06-03T06:20:11.167Z,21.06
2018-06-03T06:22:39.678Z,21.18
2018-06-03T06:25:08.116Z,21.21
2018-06-03T06:27:36.672Z,21.24
2018-06-03T06:30:05.627Z,21.32
2018-06-03T06:32:34.139Z,21.33
2018-06-03T06:35:02.881Z,21.40
2018-06-03T06:37:31.357Z,21.47
2018-06-03T06:39:59.916Z,21.57
2018-06-03T06:42:28.382Z,21.66
2018-06-03T06:44:56.846Z,21.79
2018-06-03T06:47:25.266Z,21.88
2018-06-03T06:49:53.876Z,21.89
2018-06-03T06:52:22.385Z,21.92
2018-06-03T06:54:50.927Z,22.00
2018-06-03T06:57:19.676Z,22.05
2018-06-03T06:59:48.060Z,22.09
2018-06-03T07:02:16.628Z,22.17
2018-06-03T07:04:45.358Z,22.09
2018-06-03T07:07:13.873Z,22.11
2018-06-03T07:09:42.525Z,22.15
2018-06-03T07:12:11.206Z,22.19
2018-06-03T07:14:39.670Z,22.09
2018-06-03T07:17:08.176Z,22.09
2018-06-03T07:19:36.569Z,22.14
2018-06-03T07:22:05.187Z,22.24
2018-06-03T07:24:33.789Z,22.23
2018-06-03T07:27:02.696Z,22.20
2018-06-03T07:29:31.191Z,22.17
2018-06-03T07:31:59.977Z,22.29
2018-06-03T07:34:28.347Z,22.52
2018-06-03T07:36:56.989Z,22.45
2018-06-03T07:39:25.879Z,22.50
2018-06-03T07:41:54.305Z,22.58
2018-06-03T07:44:22.991Z,22.74
2018-06-03T07:46:51.579Z,22.78
2018-06-03T07:49:20.377Z,22.80
2018-06-03T07:51:48.813Z,23.01
2018-06-03T07:54:17.177Z,22.96
2018-06-03T07:56:45.823Z,23.00
2018-06-03T07:59:14.237Z,23.15
2018-06-03T08:01:43.001Z,22.95
2018-06-03T08:04:11.826Z,22.74
2018-06-03T08:06:40.272Z,22.58
2018-06-03T08:09:08.726Z,22.70
2018-06-03T08:11:37.284Z,22.92
2018-06-03T08:14:05.783Z,22.64
2018-06-03T08:16:34.486Z,22.59
2018-06-03T08:19:02.928Z,22.75
2018-06-03T08:21:31.457Z,22.93
2018-06-03T08:23:59.998Z,23.13
2018-06-03T08:26:28.404Z,23.04
2018-06-03T08:28:57.149Z,22.86
2018-06-03T08:31:25.722Z,23.15
2018-06-03T08:33:54.244Z,22.65
2018-06-03T08:36:22.840Z,22.77
2018-06-03T08:38:51.298Z,22.71
2018-06-03T08:41:20.162Z,22.31
2018-06-03T08:43:48.676Z,22.29
2018-06-03T08:46:17.057Z,22.19
2018-06-03T08:48:45.452Z,22.31
2018-06-03T08:51:13.879Z,22.58
2018-06-03T08:53:42.374Z,22.68
2018-06-03T08:56:10.807Z,22.52
2018-06-03T08:58:39.284Z,22.45
2018-06-03T09:01:07.825Z,22.48
2018-06-03T09:03:36.358Z,22.40
2018-06-03T09:06:04.989Z,22.02
2018-06-03T09:08:33.624Z,21.75
2018-06-03T09:11:02.096Z,21.76
2018-06-03T09:13:30.727Z,21.72
2018-06-03T09:15:59.111Z,21.83
2018-06-03T09:18:27.758Z,21.92
2018-06-03T09:20:56.616Z,22.04
2018-06-03T09:23:25.165Z,22.18
2018-06-03T09:25:53.722Z,22.25
2018-06-03T09:28:22.190Z,22.20
2018-06-03T09:30:55.211Z,22.27
2018-06-03T09:33:23.905Z,22.40
2018-06-03T09:35:52.289Z,22.34
2018-06-03T09:38:20.658Z,22.39
2018-06-03T09:40:49.009Z,22.40
2018-06-03T09:43:17.429Z,22.13
2018-06-03T09:45:46.227Z,22.60
2018-06-03T09:48:14.728Z,22.45
2018-06-03T09:50:43.195Z,23.06
2018-06-03T09:53:11.558Z,23.37
2018-06-03T09:55:39.938Z,23.22
2018-06-03T09:58:08.506Z,23.45
2018-06-03T10:00:36.871Z,23.84
2018-06-03T10:03:05.213Z,23.27
2018-06-03T10:05:33.561Z,23.75
2018-06-03T10:08:01.925Z,23.88
2018-06-03T10:10:30.685Z,23.46
2018-06-03T10:12:59.208Z,23.41
2018-06-03T10:15:27.786Z,23.58
2018-06-03T10:17:56.265Z,23.89
2018-06-03T10:20:24.572Z,24.03
2018-06-03T10:22:53.120Z,23.89
2018-06-03T10:25:22.097Z,23.99
2018-06-03T10:27:50.560Z,24.16
2018-06-03T10:30:19.226Z,24.33
2018-06-03T10:32:47.631Z,23.71
2018-06-03T10:35:16.136Z,23.88
2018-06-03T10:37:44.572Z,23.90
2018-06-03T10:40:13.094Z,23.91
2018-06-03T10:42:41.541Z,23.73
2018-06-03T10:45:10.259Z,23.87
2018-06-03T10:47:38.635Z,23.81
2018-06-03T10:50:07.404Z,23.86
2018-06-03T10:52:35.848Z,24.21
2018-06-03T10:55:04.522Z,24.28
2018-06-03T10:57:33.016Z,24.58
2018-06-03T11:00:01.259Z,24.51
2018-06-03T11:02:29.911Z,23.80
2018-06-03T11:04:58.308Z,23.78
2018-06-03T11:07:27.063Z,24.16
2018-06-03T11:09:55.531Z,23.74
2018-06-03T11:12:23.960Z,24.37
2018-06-03T11:14:53.386Z,24.84
2018-06-03T11:17:21.848Z,25.00
2018-06-03T11:19:50.409Z,24.59
2018-06-03T11:22:18.984Z,24.05
2018-06-03T11:24:47.445Z,23.53
2018-06-03T11:27:15.710Z,23.40
2018-06-03T11:29:44.382Z,23.34
2018-06-03T11:32:12.850Z,22.96
2018-06-03T11:34:41.225Z,22.93
2018-06-03T11:37:09.870Z,23.25
2018-06-03T11:39:38.614Z,23.41
2018-06-03T11:42:07.045Z,23.26
2018-06-03T11:44:35.469Z,23.34
2018-06-03T11:47:04.321Z,23.58
2018-06-03T11:49:32.990Z,23.62
2018-06-03T11:52:01.522Z,23.80
2018-06-03T11:54:30.279Z,23.62
2018-06-03T11:57:04.466Z,23.75
2018-06-03T11:59:41.821Z,23.89
2018-06-03T12:02:11.865Z,23.94
2018-06-03T12:04:40.244Z,24.13
2018-06-03T12:25:07.998Z,23.37
2018-06-03T12:27:36.640Z,23.50
2018-06-03T12:30:05.167Z,23.67
2018-06-03T12:32:33.624Z,23.82
2018-06-03T12:35:02.429Z,23.83
2018-06-03T12:37:31.066Z,23.99
2018-06-03T12:39:59.699Z,24.19
2018-06-03T12:42:28.435Z,24.39
2018-06-03T12:44:57.283Z,24.66
2018-06-03T12:47:25.918Z,24.88
2018-06-03T12:49:54.227Z,24.83
2018-06-03T12:52:22.619Z,24.99
2018-06-03T12:54:51.094Z,24.93
2018-06-03T12:57:19.586Z,25.15
2018-06-03T12:59:48.233Z,25.16
2018-06-03T13:02:17.981Z,25.33
2018-06-03T13:04:46.618Z,24.91
2018-06-03T13:07:14.879Z,24.79
2018-06-03T13:09:43.326Z,24.39
2018-06-03T13:12:12.180Z,24.50
2018-06-03T13:14:40.591Z,24.67
2018-06-03T13:17:09.099Z,24.79
2018-06-03T13:19:37.771Z,24.90
2018-06-03T13:22:06.458Z,24.81
2018-06-03T13:24:34.849Z,24.79
2018-06-03T13:27:03.514Z,24.94
2018-06-03T13:29:32.108Z,25.00
2018-06-03T13:32:00.603Z,24.88
2018-06-03T13:34:29.388Z,24.87
2018-06-03T13:36:58.019Z,24.89
2018-06-03T13:39:26.551Z,24.93
2018-06-03T13:41:55.165Z,25.02
2018-06-03T13:44:23.908Z,25.15
2018-06-03T13:46:52.604Z,25.25
2018-06-03T13:49:21.055Z,25.33
2018-06-03T13:51:49.580Z,25.52
2018-06-03T13:54:18.084Z,25.47
2018-06-03T13:56:46.857Z,25.25
2018-06-03T13:59:15.519Z,25.22
2018-06-03T14:01:44.220Z,25.22
2018-06-03T14:04:12.848Z,25.10
2018-06-03T14:06:41.413Z,25.18
2018-06-03T14:09:10.012Z,25.14
2018-06-03T14:11:38.424Z,25.23
2018-06-03T14:14:06.961Z,25.41
2018-06-03T14:16:35.638Z,25.56
2018-06-03T14:19:04.566Z,25.62
2018-06-03T14:21:32.858Z,25.72
2018-06-03T14:24:01.364Z,25.95
2018-06-03T14:26:29.901Z,26.11
2018-06-03T14:28:58.570Z,26.84
2018-06-03T14:31:26.848Z,27.60
2018-06-03T14:33:55.363Z,28.39
2018-06-03T14:36:24.018Z,29.09
2018-06-03T14:38:52.421Z,29.42
2018-06-03T14:41:21.012Z,29.22
2018-06-03T14:43:49.472Z,28.21
2018-06-03T14:46:17.847Z,28.26
2018-06-03T14:48:46.555Z,28.86
2018-06-03T14:51:15.172Z,29.09
2018-06-03T14:53:43.682Z,28.54
2018-06-03T14:56:12.304Z,28.16
2018-06-03T14:58:40.914Z,28.39
2018-06-03T15:01:09.560Z,29.26
2018-06-03T15:03:38.321Z,28.68
2018-06-03T15:06:06.889Z,26.72
2018-06-03T15:08:35.140Z,26.99
2018-06-03T15:11:03.458Z,26.34
2018-06-03T15:13:31.890Z,26.02
2018-06-03T15:16:00.451Z,25.82
2018-06-03T15:18:28.934Z,25.84
2018-06-03T15:20:57.565Z,25.25
2018-06-03T15:23:26.109Z,25.04
2018-06-03T15:25:54.754Z,25.08
2018-06-03T15:28:23.451Z,25.13
2018-06-03T15:30:52.027Z,25.10
2018-06-03T15:33:20.528Z,25.21
2018-06-03T15:35:48.745Z,25.28
2018-06-03T15:38:17.331Z,25.23
2018-06-03T15:40:45.850Z,25.12
2018-06-03T15:43:14.185Z,25.02
2018-06-03T15:45:42.668Z,25.12
2018-06-03T15:48:11.208Z,25.10
2018-06-03T15:50:39.829Z,25.25
2018-06-03T15:53:08.398Z,25.14
2018-06-03T15:55:37.345Z,25.21
2018-06-03T15:58:05.902Z,25.43
2018-06-03T16:00:34.422Z,25.22
2018-06-03T16:03:03.451Z,25.32
2018-06-03T16:05:32.117Z,25.34
2018-06-03T16:08:00.740Z,25.29
2018-06-03T16:10:29.137Z,25.21
2018-06-03T16:12:57.615Z,25.19
2018-06-03T16:15:26.184Z,24.94
2018-06-03T16:17:54.470Z,24.93
2018-06-03T16:20:23.021Z,24.92
2018-06-03T16:22:51.569Z,24.90
2018-06-03T16:25:20.063Z,25.12
2018-06-03T16:27:48.724Z,25.19
2018-06-03T16:30:17.260Z,25.25
2018-06-03T16:32:45.891Z,25.29
2018-06-03T16:35:14.373Z,25.33
2018-06-03T16:37:42.954Z,25.33
2018-06-03T16:40:11.694Z,25.28
2018-06-03T16:42:40.483Z,25.29
2018-06-03T16:45:08.999Z,25.36
2018-06-03T16:47:37.527Z,25.19
2018-06-03T16:50:05.953Z,25.28
2018-06-03T16:52:34.783Z,25.28
2018-06-03T16:55:03.340Z,25.27
2018-06-03T16:57:31.950Z,25.11
2018-06-03T17:00:00.285Z,25.31
2018-06-03T17:02:29.131Z,25.20
2018-06-03T17:04:57.714Z,25.16
2018-06-03T17:07:26.099Z,25.06
2018-06-03T17:09:54.860Z,25.05
2018-06-03T17:12:23.440Z,25.02
2018-06-03T17:14:52.532Z,25.07
2018-06-03T17:17:20.817Z,24.98
2018-06-03T17:19:49.234Z,24.80
2018-06-03T17:22:17.783Z,24.76
2018-06-03T17:24:46.255Z,24.70
2018-06-03T17:27:14.866Z,24.79
2018-06-03T17:29:43.325Z,24.78
2018-06-03T17:32:12.111Z,24.68
2018-06-03T17:34:40.725Z,24.53
2018-06-03T17:37:09.275Z,24.53
2018-06-03T17:39:37.838Z,24.43
2018-06-03T17:42:06.395Z,24.37
2018-06-03T17:44:34.903Z,24.33
2018-06-03T17:47:03.542Z,24.34
2018-06-03T17:49:31.927Z,24.33
2018-06-03T17:52:00.469Z,24.24
2018-06-03T17:54:29.095Z,24.47
2018-06-03T17:56:57.667Z,24.60
2018-06-03T17:59:26.181Z,24.61
2018-06-03T18:01:54.812Z,24.57
2018-06-03T18:04:23.583Z,24.50
2018-06-03T18:06:52.132Z,24.32
2018-06-03T18:09:20.642Z,24.42
2018-06-03T18:11:49.084Z,24.22
2018-06-03T18:14:17.701Z,24.30
2018-06-03T18:16:46.145Z,24.21
2018-06-03T18:19:14.543Z,24.23
2018-06-03T18:21:42.865Z,24.20
2018-06-03T18:24:11.396Z,24.11
2018-06-03T18:26:40.040Z,24.05
2018-06-03T18:29:08.376Z,23.99
2018-06-03T18:31:36.745Z,24.03
2018-06-03T18:34:05.173Z,24.09
2018-06-03T18:36:33.653Z,24.09
2018-06-03T18:39:02.096Z,23.98
2018-06-03T18:41:30.343Z,23.81
2018-06-03T18:43:58.905Z,23.84
2018-06-03T18:46:27.638Z,23.77
2018-06-03T18:48:56.088Z,23.83
2018-06-03T18:51:25.101Z,23.78
2018-06-03T18:53:53.504Z,23.76
2018-06-03T18:56:21.811Z,23.62
2018-06-03T18:58:50.349Z,23.50
2018-06-03T19:01:18.652Z,23.53
2018-06-03T19:03:47.371Z,23.48
2018-06-03T19:06:16.024Z,23.80
2018-06-03T19:08:44.654Z,23.62
2018-06-03T19:11:13.069Z,23.41
2018-06-03T19:13:41.600Z,23.58
2018-06-03T19:16:10.368Z,23.74
2018-06-03T19:18:38.856Z,23.70
2018-06-03T19:21:07.353Z,23.57
2018-06-03T19:23:35.979Z,23.49
2018-06-03T19:26:04.435Z,23.44
2018-06-03T19:28:33.093Z,23.42
2018-06-03T19:31:01.521Z,23.30
2018-06-03T19:33:30.121Z,23.29
2018-06-03T19:35:58.567Z,23.09
2018-06-03T19:38:27.058Z,22.93
2018-06-03T19:40:55.591Z,22.78
2018-06-03T19:43:23.943Z,22.89
2018-06-03T19:45:52.540Z,22.92
2018-06-03T19:48:21.277Z,22.71
2018-06-03T19:50:49.725Z,22.60
2018-06-03T19:53:18.354Z,22.52
2018-06-03T19:55:46.924Z,22.43
2018-06-03T19:58:15.442Z,22.35
2018-06-03T20:00:44.031Z,22.34
2018-06-03T20:03:12.386Z,22.37
2018-06-03T20:05:41.050Z,22.28
2018-06-03T20:08:09.743Z,22.27
2018-06-03T20:10:38.273Z,22.44
2018-06-03T20:13:07.368Z,22.22
2018-06-03T20:15:35.901Z,22.08
2018-06-03T20:18:04.578Z,22.04
2018-06-03T20:20:33.606Z,21.99
2018-06-03T20:23:02.020Z,21.93
2018-06-03T20:25:30.848Z,21.89
2018-06-03T20:27:59.412Z,21.86
2018-06-03T20:30:27.930Z,21.80
2018-06-03T20:32:56.674Z,21.78
2018-06-03T20:35:25.169Z,21.75
2018-06-03T20:37:53.751Z,21.70
2018-06-03T20:40:22.581Z,21.68
2018-06-03T20:42:51.144Z,21.59
2018-06-03T20:45:19.630Z,21.52
2018-06-03T20:47:48.000Z,21.38
2018-06-03T20:50:16.501Z,21.36
2018-06-03T20:52:44.896Z,21.34
2018-06-03T20:55:13.208Z,21.34
2018-06-03T20:57:42.039Z,21.33
2018-06-03T21:00:10.751Z,21.31
2018-06-03T21:02:39.403Z,21.28
2018-06-03T21:05:07.871Z,21.27
2018-06-03T21:07:36.685Z,21.26
2018-06-03T21:10:05.705Z,21.23
2018-06-03T21:12:34.568Z,21.12
2018-06-03T21:15:02.994Z,21.04
2018-06-03T21:17:31.636Z,20.99
2018-06-03T21:20:00.060Z,21.01
2018-06-03T21:22:28.360Z,21.05
2018-06-03T21:24:56.871Z,21.11
2018-06-03T21:27:25.465Z,21.20
2018-06-03T21:29:53.831Z,21.01
2018-06-03T21:32:22.460Z,20.96
2018-06-03T21:34:50.710Z,21.04
2018-06-03T21:37:19.152Z,21.13
2018-06-03T21:39:47.730Z,21.33
2018-06-03T21:42:16.247Z,21.23
2018-06-03T21:44:44.947Z,21.38
2018-06-03T21:47:14.342Z,21.24
2018-06-03T21:49:42.823Z,21.09
2018-06-03T21:52:11.227Z,21.03
2018-06-03T21:54:39.659Z,21.03
2018-06-03T21:57:08.560Z,20.99
2018-06-03T21:59:36.985Z,20.95
2018-06-03T22:02:05.925Z,20.90
2018-06-03T22:04:34.264Z,20.91
2018-06-03T22:07:02.793Z,20.88
2018-06-03T22:09:31.377Z,20.82
2018-06-03T22:11:59.820Z,20.79
2018-06-03T22:14:28.000Z,20.82
2018-06-03T22:16:56.852Z,20.88
2018-06-03T22:19:25.504Z,21.01
2018-06-03T22:21:54.096Z,21.10
2018-06-03T22:24:22.414Z,21.01
2018-06-03T22:26:50.763Z,21.07
2018-06-03T22:29:19.187Z,21.04
2018-06-03T22:31:47.884Z,21.06
2018-06-03T22:34:16.420Z,20.98
2018-06-03T22:36:45.025Z,20.88
2018-06-03T22:39:13.342Z,20.94
2018-06-03T22:41:41.745Z,20.98
2018-06-03T22:44:10.299Z,20.98
2018-06-03T22:46:38.872Z,20.86
2018-06-03T22:49:07.614Z,20.89
2018-06-03T22:51:36.007Z,20.84
2018-06-03T22:54:04.860Z,20.92
2018-06-03T22:56:50.364Z,20.97
2018-06-03T22:59:18.925Z,20.81
2018-06-03T23:01:47.234Z,20.89
2018-06-03T23:04:15.826Z,20.89
2018-06-03T23:06:44.778Z,20.82
2018-06-03T23:09:13.122Z,20.77
2018-06-03T23:11:41.688Z,20.72
2018-06-03T23:14:10.000Z,20.77
2018-06-03T23:16:38.661Z,20.66
2018-06-03T23:19:07.224Z,20.64
2018-06-03T23:21:35.698Z,20.56
2018-06-03T23:24:04.215Z,20.61
2018-06-03T23:26:32.497Z,20.55
2018-06-03T23:29:01.041Z,20.53
2018-06-03T23:31:29.679Z,20.44
2018-06-03T23:33:58.082Z,20.54
2018-06-03T23:36:26.575Z,20.45
2018-06-03T23:38:55.107Z,20.37
2018-06-03T23:41:23.559Z,20.55
2018-06-03T23:43:51.944Z,20.41
2018-06-03T23:46:20.589Z,20.45
2018-06-03T23:48:49.059Z,20.32
2018-06-03T23:51:17.472Z,20.25
2018-06-03T23:53:46.111Z,20.31
2018-06-03T23:56:14.818Z,20.31
2018-06-03T23:58:43.268Z,20.29
